Terminal Aerodrome Forecast
Issued by NWS Twin Cities, MN

Home | Current Version | Previous Version | Text Only | Print | Product List | Glossary Off
Versions: 1 2 3 4 5 6 7 8 9 10 11 12

625
FTUS43 KMPX 250520
TAFEAU
TAF
KEAU 250520Z 2506/2606 28003KT P6SM SKC
     FM251500 30007KT P6SM FEW040 SCT200
     FM260200 26003KT P6SM SCT200=

USA.gov is the U.S. government's official web portal to all federal, state and local government web resources and services.